Time;durP1;ratioP1;P1;durP2;ratioP2;P2;SDS_P1;SDS_P2;PMS_P1;PMS_P2;Temp;Humidity;BMP_temperature;BMP_pressure;BME280_temperature;BME280_humidity;BME280_pressure;Samples;Min_cycle;Max_cycle;Signal;HPM_P1;HPM_P2
2023/07/21 00:00:15;;;;;;;0.55;0.55;;;17.00;99.90;;;;;;5051365;28;20087;-55
2023/07/21 00:02:41;;;;;;;1.33;0.70;;;17.00;99.90;;;;;;5051950;28;20025;-44
2023/07/21 00:05:08;;;;;;;1.10;0.70;;;17.00;99.90;;;;;;5049571;28;20025;-44
2023/07/21 00:07:35;;;;;;;1.23;1.08;;;17.00;99.90;;;;;;5055102;28;20025;-41
2023/07/21 00:10:07;;;;;;;0.70;0.65;;;17.00;99.90;;;;;;5052111;28;20047;-40
2023/07/21 00:12:49;;;;;;;0.70;0.70;;;16.90;99.90;;;;;;5043492;28;20060;-41
2023/07/21 00:15:17;;;;;;;0.80;0.75;;;16.90;99.90;;;;;;5043640;28;20139;-41
2023/07/21 00:17:43;;;;;;;0.90;0.90;;;16.90;99.90;;;;;;5051460;28;20025;-40
2023/07/21 00:20:17;;;;;;;1.45;0.93;;;16.80;99.90;;;;;;5049902;28;20033;-43
2023/07/21 00:22:42;;;;;;;2.13;1.10;;;16.80;99.90;;;;;;5045252;28;20033;-42
2023/07/21 00:25:11;;;;;;;2.95;1.10;;;16.80;99.90;;;;;;5050833;28;20029;-41
2023/07/21 00:27:42;;;;;;;2.35;0.93;;;16.80;99.90;;;;;;5045756;28;20028;-41
2023/07/21 00:30:08;;;;;;;1.55;0.90;;;16.80;99.90;;;;;;5045799;28;20025;-47
2023/07/21 00:32:41;;;;;;;1.17;1.08;;;16.70;99.90;;;;;;5053231;28;20025;-41
2023/07/21 00:35:08;;;;;;;1.30;1.20;;;16.70;99.90;;;;;;5072900;28;20381;-45
2023/07/21 00:37:34;;;;;;;2.90;1.20;;;16.70;99.90;;;;;;5070170;28;20028;-44
2023/07/21 00:40:03;;;;;;;0.80;0.80;;;16.60;99.90;;;;;;5071484;28;20025;-52
2023/07/21 00:42:29;;;;;;;1.23;1.13;;;16.60;99.90;;;;;;5072838;28;20112;-52
2023/07/21 00:44:56;;;;;;;1.30;1.00;;;16.60;99.90;;;;;;5063654;28;20479;-52
2023/07/21 00:47:25;;;;;;;1.40;1.30;;;16.60;99.90;;;;;;5061187;28;20473;-53
2023/07/21 00:49:52;;;;;;;1.20;1.10;;;16.50;99.90;;;;;;5052103;28;20024;-50
2023/07/21 00:52:18;;;;;;;2.00;1.57;;;16.50;99.90;;;;;;5072951;28;20493;-54
2023/07/21 00:54:45;;;;;;;1.40;1.27;;;16.40;99.90;;;;;;5072185;28;20289;-51
2023/07/21 00:57:11;;;;;;;1.73;1.35;;;16.40;99.90;;;;;;5074146;28;20028;-52
2023/07/21 00:59:38;;;;;;;1.80;1.25;;;16.40;99.90;;;;;;5070938;28;20078;-50
2023/07/21 01:02:05;;;;;;;1.13;1.02;;;16.40;99.90;;;;;;5073045;28;20116;-53
2023/07/21 01:04:31;;;;;;;1.17;1.10;;;16.30;99.90;;;;;;5057534;28;20466;-41
2023/07/21 01:07:03;;;;;;;2.55;1.15;;;16.30;99.90;;;;;;5052934;28;20036;-42
2023/07/21 01:09:30;;;;;;;1.50;1.40;;;16.20;99.90;;;;;;5049088;28;20529;-42
2023/07/21 01:11:55;;;;;;;1.50;1.40;;;16.20;99.90;;;;;;5049650;28;20104;-45
2023/07/21 01:14:21;;;;;;;2.28;1.88;;;16.10;99.90;;;;;;5062833;28;20053;-42
2023/07/21 01:16:48;;;;;;;1.70;1.30;;;16.10;99.90;;;;;;5044569;28;20029;-42
2023/07/21 01:19:15;;;;;;;1.43;1.30;;;16.10;99.90;;;;;;5053982;28;20079;-43
2023/07/21 01:21:48;;;;;;;1.33;1.25;;;16.00;99.90;;;;;;5053334;28;20035;-42
2023/07/21 01:24:19;;;;;;;2.00;1.70;;;16.00;99.90;;;;;;5051842;28;20040;-43
2023/07/21 01:26:48;;;;;;;1.73;1.63;;;15.90;99.90;;;;;;5070301;28;20028;-42
2023/07/21 01:29:16;;;;;;;1.60;1.50;;;15.90;99.90;;;;;;5070844;28;20120;-44
2023/07/21 01:31:43;;;;;;;1.60;1.50;;;15.80;99.90;;;;;;5061987;28;20466;-46
2023/07/21 01:34:14;;;;;;;1.67;1.58;;;15.80;99.90;;;;;;5053079;28;20017;-42
2023/07/21 01:36:42;;;;;;;1.63;1.45;;;15.80;99.90;;;;;;5072384;28;20565;-42
2023/07/21 01:39:08;;;;;;;;;;;15.80;99.90;;;;;;5053617;28;20434;-43
2023/07/21 01:41:34;;;;;;;2.08;1.75;;;15.80;99.90;;;;;;5070945;28;19914;-46
2023/07/21 01:44:01;;;;;;;2.08;1.50;;;15.80;99.90;;;;;;5052719;28;20124;-48
2023/07/21 01:46:27;;;;;;;1.83;1.70;;;15.70;99.90;;;;;;5071707;28;20064;-44
2023/07/21 01:48:52;;;;;;;2.72;1.58;;;15.70;99.90;;;;;;5073378;28;20087;-42
2023/07/21 01:51:20;;;;;;;2.53;1.40;;;15.70;99.90;;;;;;5073101;28;20024;-41
2023/07/21 01:53:59;;;;;;;3.85;1.40;;;15.70;99.90;;;;;;5072969;28;20028;-43
2023/07/21 01:56:30;;;;;;;1.67;1.58;;;15.70;99.90;;;;;;5072016;28;20078;-45
2023/07/21 01:59:02;;;;;;;1.52;1.42;;;15.70;99.90;;;;;;5073036;28;20087;-44
2023/07/21 02:01:28;;;;;;;1.77;1.60;;;15.70;99.90;;;;;;5041372;28;20065;-44
2023/07/21 02:03:54;;;;;;;2.53;1.90;;;15.60;99.90;;;;;;5064393;28;20469;-52
2023/07/21 02:06:20;;;;;;;4.18;2.05;;;15.60;99.90;;;;;;5071636;28;20074;-54
2023/07/21 02:08:45;;;;;;;1.80;1.38;;;15.50;99.90;;;;;;5072879;28;20021;-53
2023/07/21 02:11:11;;;;;;;1.55;1.40;;;15.50;99.90;;;;;;5062064;28;20035;-53
2023/07/21 02:13:39;;;;;;;3.70;1.90;;;15.50;99.90;;;;;;5057143;28;20033;-53
2023/07/21 02:16:05;;;;;;;;;;;15.40;99.90;;;;;;5073481;28;20027;-52
2023/07/21 02:18:33;;;;;;;1.70;1.60;;;15.40;99.90;;;;;;5073024;28;19904;-51
2023/07/21 02:21:02;;;;;;;3.28;1.70;;;15.40;99.90;;;;;;5060580;28;20064;-52
2023/07/21 02:23:28;;;;;;;3.22;2.78;;;15.40;99.90;;;;;;5047046;28;20038;-53
2023/07/21 02:25:54;;;;;;;2.35;1.13;;;15.30;99.90;;;;;;5045889;28;20033;-52
2023/07/21 02:28:20;;;;;;;1.58;1.30;;;15.30;99.90;;;;;;5052806;28;20490;-53
2023/07/21 02:30:46;;;;;;;2.25;1.38;;;15.30;99.90;;;;;;5059092;28;20572;-51
2023/07/21 02:33:11;;;;;;;3.63;1.48;;;15.30;99.90;;;;;;5052575;28;20104;-53
2023/07/21 02:35:37;;;;;;;1.60;1.40;;;15.30;99.90;;;;;;5052419;28;20028;-54
2023/07/21 02:38:05;;;;;;;1.40;1.30;;;15.30;99.90;;;;;;5058314;28;20028;-52
2023/07/21 02:40:31;;;;;;;1.90;1.73;;;15.20;99.90;;;;;;5066794;28;20155;-53
2023/07/21 02:42:57;;;;;;;1.33;1.23;;;15.20;99.90;;;;;;5068255;28;20635;-57
2023/07/21 02:45:22;;;;;;;2.92;1.67;;;15.20;99.90;;;;;;5063317;28;20025;-53
2023/07/21 02:47:48;;;;;;;4.80;1.77;;;15.20;99.90;;;;;;5068993;28;20013;-53
2023/07/21 02:50:15;;;;;;;2.45;1.58;;;15.10;99.90;;;;;;5072444;28;20017;-52
2023/07/21 02:52:42;;;;;;;2.13;1.50;;;15.10;99.90;;;;;;5069445;28;20083;-51
2023/07/21 02:55:08;;;;;;;1.55;1.45;;;15.10;99.90;;;;;;5071135;28;20024;-54
2023/07/21 02:57:34;;;;;;;1.95;1.60;;;15.10;99.90;;;;;;5072414;28;20021;-43
2023/07/21 03:00:03;;;;;;;3.17;1.40;;;15.20;99.90;;;;;;5067858;28;20079;-44
2023/07/21 03:02:30;;;;;;;1.73;1.50;;;15.20;99.90;;;;;;5066479;28;20025;-41
2023/07/21 03:04:57;;;;;;;2.15;1.95;;;15.20;99.90;;;;;;5052229;28;20035;-44
2023/07/21 03:07:23;;;;;;;2.70;1.75;;;15.20;99.90;;;;;;5054620;28;20071;-45
2023/07/21 03:09:48;;;;;;;2.25;1.80;;;15.20;99.90;;;;;;5066768;28;20480;-43
2023/07/21 03:12:14;;;;;;;3.22;2.92;;;15.10;99.90;;;;;;5073091;28;20033;-41
2023/07/21 03:14:39;;;;;;;3.65;2.53;;;15.20;99.90;;;;;;5069185;28;20074;-44
2023/07/21 03:17:05;;;;;;;4.65;3.53;;;15.30;99.90;;;;;;5075992;28;20408;-43
2023/07/21 03:19:31;;;;;;;2.85;2.50;;;15.30;99.90;;;;;;5069719;28;20021;-41
2023/07/21 03:21:57;;;;;;;3.90;2.67;;;15.30;99.90;;;;;;5055649;28;20070;-45
2023/07/21 03:24:23;;;;;;;6.20;2.60;;;15.40;99.90;;;;;;5074639;28;20036;-43
2023/07/21 03:26:50;;;;;;;3.65;3.17;;;15.50;99.90;;;;;;5075759;28;20025;-44
2023/07/21 03:29:16;;;;;;;2.95;2.65;;;15.50;99.90;;;;;;5070977;28;20020;-48
2023/07/21 03:31:42;;;;;;;5.60;2.90;;;15.50;99.90;;;;;;5062965;28;20029;-41
2023/07/21 03:34:07;;;;;;;3.22;2.50;;;15.50;99.90;;;;;;5054353;28;20028;-44
2023/07/21 03:36:33;;;;;;;2.65;2.40;;;15.50;99.90;;;;;;5066270;28;20030;-45
2023/07/21 03:38:59;;;;;;;2.67;2.22;;;15.50;99.90;;;;;;5075664;28;20397;-42
2023/07/21 03:41:24;;;;;;;5.22;2.40;;;15.50;99.90;;;;;;5073476;28;20056;-43
2023/07/21 03:43:50;;;;;;;2.80;2.50;;;15.50;99.90;;;;;;5055416;28;20028;-42
2023/07/21 03:46:16;;;;;;;3.47;3.17;;;15.50;99.90;;;;;;5075455;28;20047;-43
2023/07/21 03:48:43;;;;;;;6.35;2.97;;;15.40;99.90;;;;;;5073742;28;20021;-42
2023/07/21 03:51:08;;;;;;;3.53;2.80;;;15.40;99.90;;;;;;5045529;28;20026;-46
2023/07/21 03:53:34;;;;;;;3.47;2.90;;;15.40;99.90;;;;;;5051535;28;20036;-43
2023/07/21 03:56:00;;;;;;;4.00;2.70;;;15.30;99.90;;;;;;5053674;28;20021;-46
2023/07/21 03:58:26;;;;;;;4.65;2.67;;;15.30;99.90;;;;;;5054823;28;20548;-44
2023/07/21 04:00:52;;;;;;;5.15;3.50;;;15.20;99.90;;;;;;5051403;28;20377;-41
2023/07/21 04:03:18;;;;;;;4.22;3.22;;;15.20;99.90;;;;;;5049434;28;20038;-41
2023/07/21 04:05:44;;;;;;;5.80;3.20;;;15.10;99.90;;;;;;5055371;28;20025;-43
2023/07/21 04:08:09;;;;;;;4.30;2.97;;;15.10;99.90;;;;;;5052946;28;20493;-41
2023/07/21 04:10:41;;;;;;;5.10;3.33;;;15.10;99.90;;;;;;5054874;28;20447;-41
2023/07/21 04:13:07;;;;;;;5.78;3.20;;;15.10;99.90;;;;;;5054930;28;20025;-51
2023/07/21 04:15:32;;;;;;;7.60;3.47;;;15.10;99.90;;;;;;5058172;28;20029;-53
2023/07/21 04:17:58;;;;;;;5.53;3.22;;;15.00;99.90;;;;;;5074095;28;20082;-61
2023/07/21 04:20:23;;;;;;;7.05;3.65;;;15.00;99.90;;;;;;5074853;28;20429;-53
2023/07/21 04:22:50;;;;;;;5.90;3.80;;;15.00;99.90;;;;;;5074841;28;20048;-50
2023/07/21 04:25:17;;;;;;;6.15;3.55;;;15.00;99.90;;;;;;5063926;28;20021;-53
2023/07/21 04:27:45;;;;;;;3.23;2.93;;;15.00;99.90;;;;;;5065962;28;20049;-53
2023/07/21 04:30:11;;;;;;;12.70;4.30;;;15.00;99.90;;;;;;5070926;28;20465;-52
2023/07/21 04:32:39;;;;;;;4.80;3.45;;;15.00;99.90;;;;;;5055439;28;20025;-53
2023/07/21 04:35:08;;;;;;;6.60;3.85;;;15.10;99.90;;;;;;5054836;28;20033;-50
2023/07/21 04:37:34;;;;;;;4.05;3.50;;;15.10;99.90;;;;;;5073217;28;20596;-54
2023/07/21 04:40:00;;;;;;;4.50;3.30;;;15.10;99.90;;;;;;5072289;28;20039;-44
2023/07/21 04:42:26;;;;;;;3.88;3.28;;;15.10;99.90;;;;;;5074317;28;20481;-45
2023/07/21 04:44:52;;;;;;;5.93;3.72;;;15.20;99.90;;;;;;5060801;28;20151;-40
2023/07/21 04:47:18;;;;;;;3.30;2.78;;;15.30;99.90;;;;;;5054166;28;20032;-42
2023/07/21 04:49:44;;;;;;;6.18;3.67;;;15.30;99.90;;;;;;5054298;28;20029;-41
2023/07/21 04:52:09;;;;;;;6.10;3.25;;;15.40;99.90;;;;;;5054178;28;20563;-41
2023/07/21 04:54:37;;;;;;;8.55;4.20;;;15.40;99.90;;;;;;5061200;28;20040;-42
2023/07/21 04:57:03;;;;;;;7.15;4.03;;;15.50;99.90;;;;;;5072812;28;20035;-44
2023/07/21 04:59:29;;;;;;;4.50;3.58;;;15.60;99.90;;;;;;5064349;28;20489;-43
2023/07/21 05:01:54;;;;;;;4.38;3.35;;;15.70;99.90;;;;;;5055862;28;20499;-42
2023/07/21 05:04:20;;;;;;;3.50;3.20;;;15.80;99.90;;;;;;5074258;28;20043;-44
2023/07/21 05:06:47;;;;;;;3.90;2.63;;;15.90;99.90;;;;;;5072035;28;20020;-43
2023/07/21 05:09:14;;;;;;;5.70;3.90;;;15.90;99.90;;;;;;5050327;28;20036;-42
2023/07/21 05:11:43;;;;;;;5.13;3.63;;;15.90;99.90;;;;;;5050263;28;20477;-42
2023/07/21 05:14:08;;;;;;;4.68;3.53;;;16.00;99.90;;;;;;5050833;28;20028;-41
2023/07/21 05:16:37;;;;;;;6.97;3.88;;;16.10;99.90;;;;;;5052987;28;20033;-45
2023/07/21 05:19:03;;;;;;;6.63;3.22;;;16.20;99.90;;;;;;5053985;28;20470;-46
2023/07/21 05:21:29;;;;;;;5.13;3.55;;;16.20;99.90;;;;;;5052425;28;20089;-41
2023/07/21 05:23:55;;;;;;;2.78;2.53;;;16.30;99.90;;;;;;5046703;28;20033;-41
2023/07/21 05:26:21;;;;;;;7.88;3.97;;;16.30;99.90;;;;;;5047202;28;20102;-41
2023/07/21 05:28:49;;;;;;;4.43;3.63;;;16.40;99.90;;;;;;5053650;28;20500;-39
2023/07/21 05:31:16;;;;;;;6.90;4.72;;;16.40;99.90;;;;;;5050431;28;20108;-45
2023/07/21 05:33:41;;;;;;;6.97;4.88;;;16.50;99.90;;;;;;5053400;28;20013;-42
2023/07/21 05:36:10;;;;;;;4.50;3.70;;;16.50;99.90;;;;;;5053254;28;20044;-44
2023/07/21 05:38:37;;;;;;;5.38;3.80;;;16.60;99.90;;;;;;5053287;28;20067;-44
2023/07/21 05:41:03;;;;;;;2.88;2.63;;;16.70;99.90;;;;;;5060048;28;20035;-42
2023/07/21 05:43:29;;;;;;;6.18;3.95;;;16.70;99.90;;;;;;5053173;28;20508;-45
2023/07/21 05:45:55;;;;;;;6.65;4.45;;;16.80;99.90;;;;;;5065001;28;20024;-44
2023/07/21 05:48:21;;;;;;;4.13;3.08;;;16.90;99.90;;;;;;5073119;28;20477;-42
2023/07/21 05:50:46;;;;;;;4.22;3.03;;;17.00;99.90;;;;;;5071748;28;20545;-45
2023/07/21 05:53:12;;;;;;;8.20;3.72;;;17.10;99.90;;;;;;5061080;28;20029;-41
2023/07/21 05:55:44;;;;;;;5.63;3.78;;;17.20;99.90;;;;;;5053159;28;20029;-43
2023/07/21 05:58:10;;;;;;;5.65;3.15;;;17.30;99.90;;;;;;5053061;28;20492;-46
2023/07/21 06:00:39;;;;;;;4.05;2.85;;;17.30;99.90;;;;;;5064096;28;20063;-45
2023/07/21 06:03:05;;;;;;;3.95;3.15;;;17.40;99.90;;;;;;5073214;28;20399;-41
2023/07/21 06:05:32;;;;;;;3.72;2.03;;;17.50;99.90;;;;;;5072893;28;20020;-42
2023/07/21 06:07:57;;;;;;;3.65;2.80;;;17.70;99.90;;;;;;5073132;28;20511;-41
2023/07/21 06:10:23;;;;;;;4.18;3.22;;;17.80;99.90;;;;;;5054531;28;20029;-43
2023/07/21 06:12:49;;;;;;;7.53;2.80;;;17.90;99.90;;;;;;5055391;28;20481;-42
2023/07/21 06:15:14;;;;;;;3.53;2.65;;;18.00;99.90;;;;;;5066521;28;20028;-43
2023/07/21 06:17:40;;;;;;;8.50;2.83;;;18.00;99.90;;;;;;5071562;28;20032;-40
2023/07/21 06:20:10;;;;;;;3.67;2.45;;;18.10;99.90;;;;;;5059464;28;20027;-44
2023/07/21 06:22:36;;;;;;;2.47;2.10;;;18.20;99.90;;;;;;5055047;28;20424;-44
2023/07/21 06:25:04;;;;;;;3.10;1.95;;;18.30;99.90;;;;;;5052153;28;20045;-40
2023/07/21 06:27:30;;;;;;;3.42;2.20;;;18.40;99.90;;;;;;5051295;28;20037;-41
2023/07/21 06:29:56;;;;;;;3.15;1.90;;;18.40;99.90;;;;;;5050635;28;20497;-44
2023/07/21 06:32:22;;;;;;;9.82;1.88;;;18.50;99.90;;;;;;5048210;28;20017;-46
2023/07/21 06:34:47;;;;;;;2.47;1.45;;;18.60;99.90;;;;;;5048401;28;20038;-42
2023/07/21 06:37:13;;;;;;;2.38;1.50;;;18.60;99.90;;;;;;5048684;28;20499;-46
2023/07/21 06:39:39;;;;;;;3.67;2.15;;;18.60;99.90;;;;;;5050747;28;20025;-43
2023/07/21 06:42:05;;;;;;;2.40;2.20;;;18.60;99.90;;;;;;5048591;28;20060;-44
2023/07/21 06:44:31;;;;;;;1.95;1.40;;;18.60;99.90;;;;;;5053499;28;20017;-41
2023/07/21 06:46:57;;;;;;;2.28;1.55;;;18.60;99.90;;;;;;5058440;28;20036;-42
2023/07/21 06:49:23;;;;;;;3.58;1.77;;;18.60;99.90;;;;;;5056882;28;20025;-43
2023/07/21 06:51:49;;;;;;;2.22;1.52;;;18.50;99.90;;;;;;5056181;28;20029;-44
2023/07/21 06:54:14;;;;;;;3.45;1.70;;;18.50;99.90;;;;;;5055279;28;20474;-40
2023/07/21 06:56:40;;;;;;;1.50;1.40;;;18.50;99.90;;;;;;5056195;28;20025;-42
2023/07/21 06:59:06;;;;;;;2.20;2.00;;;18.40;99.90;;;;;;5056343;28;20035;-45
2023/07/21 07:01:31;;;;;;;7.22;3.67;;;18.40;99.90;;;;;;5056417;28;20504;-41
2023/07/21 07:03:58;;;;;;;2.47;1.98;;;18.50;99.90;;;;;;5056196;28;20028;-46
2023/07/21 07:06:24;;;;;;;4.75;2.03;;;18.50;99.90;;;;;;5056117;28;20021;-42
2023/07/21 07:08:49;;;;;;;3.85;2.00;;;18.50;99.90;;;;;;5056172;28;20385;-42
2023/07/21 07:11:15;;;;;;;3.05;1.02;;;18.40;99.90;;;;;;5044193;28;20032;-41
2023/07/21 07:13:41;;;;;;;2.60;0.82;;;18.30;99.90;;;;;;5035167;28;20461;-41
2023/07/21 07:16:06;;;;;;;0.80;0.73;;;18.30;99.90;;;;;;5036092;28;20037;-41
2023/07/21 07:18:32;;;;;;;8.90;2.25;;;18.30;99.90;;;;;;5050778;28;20032;-40
2023/07/21 07:20:58;;;;;;;1.33;1.08;;;18.40;99.90;;;;;;5056075;28;20025;-42
2023/07/21 07:23:23;;;;;;;1.70;1.17;;;18.40;99.90;;;;;;5055597;28;20052;-40
2023/07/21 07:25:53;;;;;;;1.60;1.33;;;18.50;99.90;;;;;;5055841;28;20389;-46
2023/07/21 07:28:20;;;;;;;2.83;1.17;;;18.50;99.90;;;;;;5053469;28;20025;-41
2023/07/21 07:30:47;;;;;;;2.17;1.30;;;18.50;99.90;;;;;;5050501;28;20025;-44
2023/07/21 07:33:16;;;;;;;2.50;1.38;;;18.60;99.90;;;;;;5045685;28;20509;-45
2023/07/21 07:35:53;;;;;;;5.43;1.25;;;18.60;99.90;;;;;;5047932;28;20021;-42
2023/07/21 07:38:29;;;;;;;2.00;1.33;;;18.60;99.90;;;;;;5064514;28;20076;-40
2023/07/21 07:41:05;;;;;;;1.25;1.15;;;18.50;99.90;;;;;;5055495;28;20028;-42
2023/07/21 07:43:32;;;;;;;1.50;1.02;;;18.50;99.90;;;;;;5056019;28;20036;-40
2023/07/21 07:45:59;;;;;;;7.72;1.27;;;18.70;99.90;;;;;;5056785;28;20079;-43
2023/07/21 07:48:25;;;;;;;1.60;0.80;;;18.70;99.90;;;;;;5062490;28;20311;-44
2023/07/21 07:50:55;;;;;;;2.00;1.20;;;18.80;99.90;;;;;;5074917;28;20031;-43
2023/07/21 07:53:21;;;;;;;1.50;1.15;;;18.90;99.90;;;;;;5071378;28;20021;-40
2023/07/21 07:55:47;;;;;;;0.90;0.90;;;19.00;99.90;;;;;;5058802;28;20394;-40
2023/07/21 07:58:13;;;;;;;1.30;1.20;;;19.10;99.90;;;;;;5049411;28;20021;-51
2023/07/21 08:00:41;;;;;;;9.02;1.90;;;19.30;99.90;;;;;;5069014;28;20016;-42
2023/07/21 08:03:09;;;;;;;1.25;0.80;;;19.40;99.90;;;;;;5072460;28;20101;-40
2023/07/21 08:05:36;;;;;;;2.17;1.20;;;19.40;99.90;;;;;;5072155;28;20025;-40
2023/07/21 08:08:03;;;;;;;1.65;1.30;;;19.60;99.90;;;;;;5073861;28;20507;-39
2023/07/21 08:10:30;;;;;;;19.30;3.40;;;19.80;99.90;;;;;;5073638;28;20028;-41
2023/07/21 08:12:56;;;;;;;0.70;0.70;;;20.00;99.90;;;;;;5075272;28;20040;-40
2023/07/21 08:15:23;;;;;;;3.35;1.50;;;20.00;99.90;;;;;;5067481;28;20043;-44
2023/07/21 08:17:50;;;;;;;1.60;1.50;;;20.00;99.90;;;;;;5074960;28;20033;-40
2023/07/21 08:20:19;;;;;;;2.38;2.17;;;19.90;99.90;;;;;;5069875;28;20030;-47
2023/07/21 08:22:46;;;;;;;6.95;1.58;;;19.90;99.90;;;;;;5074811;28;20090;-53
2023/07/21 08:25:12;;;;;;;7.37;1.67;;;19.80;99.90;;;;;;5073313;28;20088;-53
2023/07/21 08:27:38;;;;;;;5.53;1.38;;;19.80;99.90;;;;;;5059776;28;20061;-53
2023/07/21 08:30:04;;;;;;;0.85;0.85;;;19.60;99.90;;;;;;5029601;28;20124;-53
2023/07/21 08:32:30;;;;;;;1.58;1.00;;;19.60;99.90;;;;;;5049219;28;20084;-50
2023/07/21 08:34:56;;;;;;;2.60;1.70;;;19.70;99.90;;;;;;5047734;28;20029;-54
2023/07/21 08:37:22;;;;;;;3.05;2.05;;;20.00;99.90;;;;;;5045269;28;20039;-50
2023/07/21 08:39:48;;;;;;;1.48;1.38;;;20.50;99.90;;;;;;5051868;28;20034;-52
2023/07/21 08:42:14;;;;;;;1.65;1.40;;;21.00;99.90;;;;;;5065695;28;20439;-48
2023/07/21 08:44:41;;;;;;;1.52;1.23;;;21.30;99.90;;;;;;5060946;28;20027;-53
2023/07/21 08:47:07;;;;;;;1.40;1.17;;;21.90;99.90;;;;;;5068225;28;20029;-52
2023/07/21 08:49:33;;;;;;;2.17;1.20;;;22.40;99.90;;;;;;5071475;28;20029;-53
2023/07/21 08:51:59;;;;;;;1.10;1.10;;;22.60;99.90;;;;;;5071487;28;20348;-53
2023/07/21 08:54:24;;;;;;;1.27;1.08;;;22.90;99.90;;;;;;5070123;28;20115;-53
2023/07/21 08:56:50;;;;;;;2.38;0.88;;;23.20;99.90;;;;;;5070018;28;20492;-54
2023/07/21 08:59:18;;;;;;;2.00;0.95;;;22.80;99.60;;;;;;5072603;28;20066;-53
2023/07/21 09:01:44;;;;;;;1.77;0.90;;;22.70;99.90;;;;;;5067775;28;20030;-52
2023/07/21 09:04:20;;;;;;;1.73;0.73;;;22.80;99.80;;;;;;5067996;28;20025;-54
2023/07/21 09:07:01;;;;;;;1.92;1.20;;;22.50;99.70;;;;;;5073995;28;20032;-52
2023/07/21 09:09:31;;;;;;;2.22;0.98;;;22.40;99.90;;;;;;5065083;28;20066;-53
2023/07/21 09:12:07;;;;;;;2.65;0.80;;;22.60;99.70;;;;;;5062776;28;20512;-54
2023/07/21 09:14:41;;;;;;;0.98;0.80;;;23.00;99.00;;;;;;5071141;28;20377;-53
2023/07/21 09:17:10;;;;;;;1.02;0.93;;;23.10;99.60;;;;;;5067863;28;20047;-53
2023/07/21 09:19:41;;;;;;;0.93;0.93;;;22.90;99.00;;;;;;5070837;28;20036;-53
2023/07/21 09:22:07;;;;;;;0.82;0.82;;;22.70;99.50;;;;;;5073515;28;20508;-53
2023/07/21 09:24:33;;;;;;;0.75;0.63;;;22.60;99.60;;;;;;5065810;28;20524;-53
2023/07/21 09:27:15;;;;;;;3.17;0.70;;;22.60;99.50;;;;;;5070862;28;20032;-55
2023/07/21 09:29:42;;;;;;;1.58;1.10;;;22.70;99.90;;;;;;5072610;28;20040;-54
2023/07/21 09:32:18;;;;;;;1.13;0.90;;;22.90;99.90;;;;;;5070689;28;20090;-54
2023/07/21 09:35:01;;;;;;;1.52;0.90;;;23.30;99.40;;;;;;5059977;28;20024;-49
2023/07/21 09:37:32;;;;;;;0.80;0.80;;;23.60;99.20;;;;;;5033486;28;20167;-54
2023/07/21 09:40:00;;;;;;;0.85;0.77;;;24.00;98.10;;;;;;5033474;28;20042;-54
2023/07/21 09:42:28;;;;;;;0.70;0.70;;;24.00;98.40;;;;;;5066546;28;20040;-54
2023/07/21 09:44:55;;;;;;;1.30;0.77;;;24.00;98.50;;;;;;5073226;28;20020;-53
2023/07/21 09:47:21;;;;;;;0.70;0.52;;;24.10;96.80;;;;;;5071916;28;20024;-54
2023/07/21 09:49:49;;;;;;;1.33;0.80;;;24.20;97.30;;;;;;5068276;28;20414;-52
2023/07/21 09:52:17;;;;;;;1.15;0.93;;;23.50;97.10;;;;;;5073046;28;20035;-53
2023/07/21 09:54:45;;;;;;;0.70;0.60;;;22.90;97.80;;;;;;5072999;28;20024;-49
2023/07/21 09:57:13;;;;;;;1.88;0.77;;;22.70;98.50;;;;;;5070009;28;20484;-51
2023/07/21 09:59:43;;;;;;;2.40;1.00;;;22.70;97.80;;;;;;5072989;28;20030;-50
2023/07/21 10:02:10;;;;;;;1.05;0.95;;;22.60;98.20;;;;;;5068502;28;20103;-53
2023/07/21 10:04:35;;;;;;;0.60;0.60;;;22.60;99.00;;;;;;5033013;28;20025;-53
2023/07/21 10:07:06;;;;;;;1.45;0.90;;;22.50;98.40;;;;;;5058941;28;20023;-53
2023/07/21 10:09:33;;;;;;;1.88;0.95;;;22.00;98.00;;;;;;5072883;28;20033;-52
2023/07/21 10:12:14;;;;;;;0.50;0.50;;;21.80;99.30;;;;;;5070456;28;20025;-53
2023/07/21 10:14:40;;;;;;;0.65;0.65;;;21.90;99.00;;;;;;5072846;28;20028;-51
2023/07/21 10:17:07;;;;;;;1.90;0.90;;;21.80;98.30;;;;;;5070476;28;20081;-53
2023/07/21 10:19:44;;;;;;;1.17;0.80;;;22.10;99.50;;;;;;5072819;28;20077;-52
2023/07/21 10:22:12;;;;;;;1.10;0.98;;;22.20;97.70;;;;;;5069881;28;20465;-51
2023/07/21 10:24:48;;;;;;;1.35;1.20;;;22.50;98.50;;;;;;5069962;28;20041;-53
2023/07/21 10:27:23;;;;;;;0.50;0.50;;;22.80;97.20;;;;;;5072683;28;20500;-52
2023/07/21 10:30:15;;;;;;;0.63;0.60;;;22.80;97.90;;;;;;5068048;28;20491;-52
2023/07/21 10:32:41;;;;;;;0.50;0.50;;;23.20;96.90;;;;;;5072548;28;20044;-52
2023/07/21 10:35:36;;;;;;;0.60;0.60;;;23.10;96.40;;;;;;5070333;28;20044;-54
2023/07/21 10:38:29;;;;;;;1.23;0.90;;;22.90;96.40;;;;;;5072603;28;20032;-53
2023/07/21 10:40:54;;;;;;;2.08;0.85;;;23.10;97.30;;;;;;5069172;28;20032;-53
2023/07/21 10:43:20;;;;;;;1.38;1.13;;;22.80;97.60;;;;;;5066566;28;20051;-59
2023/07/21 10:45:51;;;;;;;0.80;0.80;;;22.50;98.10;;;;;;5067142;28;20021;-55
2023/07/21 10:48:17;;;;;;;0.93;0.90;;;22.40;98.00;;;;;;5072741;28;20036;-53
2023/07/21 10:50:58;;;;;;;3.72;1.05;;;22.30;98.90;;;;;;5062562;28;20021;-53
2023/07/21 10:53:24;;;;;;;1.77;0.90;;;21.90;98.90;;;;;;5072705;28;20104;-53
2023/07/21 10:55:54;;;;;;;1.60;1.50;;;21.50;99.20;;;;;;5070325;28;20564;-50
2023/07/21 10:58:20;;;;;;;2.60;1.10;;;21.10;99.70;;;;;;5070606;28;20029;-52
2023/07/21 11:00:47;;;;;;;2.03;1.23;;;20.80;99.80;;;;;;5068949;28;20489;-52
2023/07/21 11:03:13;;;;;;;7.13;1.45;;;20.10;99.90;;;;;;5052317;28;20516;-52
2023/07/21 11:05:39;;;;;;;7.20;1.45;;;19.20;99.90;;;;;;5052273;28;20053;-53
2023/07/21 11:08:05;;;;;;;3.40;1.35;;;18.80;99.90;;;;;;5063267;28;20115;-51
2023/07/21 11:10:34;;;;;;;1.70;1.60;;;18.40;99.90;;;;;;5070045;28;20024;-52
2023/07/21 11:13:00;;;;;;;13.27;1.60;;;18.20;99.90;;;;;;5072518;28;20458;-54
2023/07/21 11:15:26;;;;;;;2.27;2.10;;;18.10;99.90;;;;;;5072250;28;20115;-52
2023/07/21 11:18:03;;;;;;;3.58;2.53;;;18.00;99.90;;;;;;5064080;28;20365;-53
2023/07/21 11:20:30;;;;;;;5.38;1.98;;;18.10;99.90;;;;;;5072200;28;20027;-50
2023/07/21 11:22:56;;;;;;;1.70;1.60;;;17.90;99.90;;;;;;5072108;28;20032;-52
2023/07/21 11:25:22;;;;;;;3.65;2.22;;;17.90;99.90;;;;;;5069791;28;20036;-53
2023/07/21 11:27:48;;;;;;;4.65;2.10;;;17.50;99.90;;;;;;5073767;28;20381;-50
2023/07/21 11:30:18;;;;;;;3.85;2.15;;;17.30;99.90;;;;;;5074534;28;20028;-56
2023/07/21 11:32:44;;;;;;;6.38;2.30;;;17.20;99.90;;;;;;5065393;28;20021;-49
2023/07/21 11:35:10;;;;;;;3.05;2.75;;;17.20;99.90;;;;;;5055730;28;20040;-51
2023/07/21 11:37:41;;;;;;;2.75;2.33;;;17.20;99.90;;;;;;5055760;28;20116;-53
2023/07/21 11:40:14;;;;;;;3.53;2.33;;;17.20;99.90;;;;;;5059145;28;20048;-52
2023/07/21 11:42:48;;;;;;;3.05;2.53;;;17.10;99.90;;;;;;5066363;28;20074;-53
2023/07/21 11:45:41;;;;;;;4.18;2.70;;;17.10;99.90;;;;;;5055610;28;20017;-50
2023/07/21 11:48:18;;;;;;;2.88;2.00;;;17.10;99.90;;;;;;5062821;28;20024;-52
2023/07/21 11:50:52;;;;;;;2.08;1.95;;;17.20;99.90;;;;;;5075835;28;20074;-52
2023/07/21 11:53:19;;;;;;;6.32;2.30;;;17.30;99.90;;;;;;5073055;28;20033;-53
2023/07/21 11:55:44;;;;;;;2.13;1.90;;;17.30;99.90;;;;;;5070460;28;20039;-53
2023/07/21 11:58:13;;;;;;;3.03;2.28;;;17.20;99.90;;;;;;5065351;28;20021;-52
2023/07/21 12:00:40;;;;;;;2.17;1.73;;;17.20;99.90;;;;;;5073204;28;20067;-52
2023/07/21 12:03:06;;;;;;;4.20;1.67;;;17.20;99.90;;;;;;5064869;28;20033;-52
2023/07/21 12:05:33;;;;;;;2.25;2.00;;;17.30;99.90;;;;;;5054803;28;20033;-52
2023/07/21 12:07:59;;;;;;;1.60;1.50;;;17.40;99.90;;;;;;5055076;28;20017;-52
2023/07/21 12:10:26;;;;;;;1.38;1.27;;;17.60;99.90;;;;;;5060487;28;20107;-57
2023/07/21 12:12:52;;;;;;;1.42;1.33;;;17.70;99.90;;;;;;5075349;28;20085;-51
2023/07/21 12:15:19;;;;;;;2.58;1.80;;;17.70;99.90;;;;;;5070819;28;20510;-53
2023/07/21 12:17:47;;;;;;;1.98;1.77;;;17.90;99.90;;;;;;5075225;28;20424;-51
2023/07/21 12:20:13;;;;;;;1.58;1.25;;;17.90;99.90;;;;;;5073161;28;20028;-52
2023/07/21 12:22:40;;;;;;;2.70;1.75;;;18.10;99.90;;;;;;5075070;28;20047;-54
2023/07/21 12:25:07;;;;;;;1.70;1.45;;;18.20;99.90;;;;;;5068938;28;20076;-52
2023/07/21 12:27:34;;;;;;;1.30;1.20;;;18.20;99.90;;;;;;5071495;28;20021;-52
2023/07/21 12:30:02;;;;;;;1.52;1.42;;;18.20;99.90;;;;;;5073501;28;20076;-52
2023/07/21 12:32:28;;;;;;;1.55;1.45;;;18.30;99.90;;;;;;5074757;28;20060;-53
2023/07/21 12:34:53;;;;;;;1.83;1.55;;;18.30;99.90;;;;;;5073573;28;20068;-52
2023/07/21 12:37:19;;;;;;;3.03;1.55;;;18.30;99.90;;;;;;5074627;28;20480;-52
2023/07/21 12:39:46;;;;;;;3.55;1.90;;;18.40;99.90;;;;;;5035160;28;20025;-54
2023/07/21 12:42:12;;;;;;;2.08;1.20;;;18.40;99.90;;;;;;5034525;28;20506;-54
2023/07/21 12:44:37;;;;;;;1.60;1.30;;;18.30;99.90;;;;;;5076545;28;20033;-52
2023/07/21 12:47:05;;;;;;;1.30;1.20;;;18.30;99.90;;;;;;5074722;28;20021;-54
2023/07/21 12:49:32;;;;;;;2.55;1.35;;;18.30;99.90;;;;;;5071871;28;20029;-52